Time;durP1;ratioP1;P1;durP2;ratioP2;P2;SDS_P1;SDS_P2;PMS_P1;PMS_P2;Temp;Humidity;BMP_temperature;BMP_pressure;BME280_temperature;BME280_humidity;BME280_pressure;Samples;Min_cycle;Max_cycle;Signal;HPM_P1;HPM_P2
2022/09/06 00:00:53;;;;;;;0.30;0.30;;;17.30;93.00;;;;;;4260249;33;20076;-73
2022/09/06 00:03:18;;;;;;;0.30;0.30;;;17.40;93.00;;;;;;4262886;33;20508;-73
2022/09/06 00:05:44;;;;;;;0.30;0.30;;;17.40;93.00;;;;;;4259942;33;20089;-74
2022/09/06 00:08:09;;;;;;;0.40;0.40;;;17.40;92.70;;;;;;4263286;33;20105;-74
2022/09/06 00:10:36;;;;;;;0.80;0.80;;;17.40;92.60;;;;;;4260892;33;20077;-75
2022/09/06 00:13:04;;;;;;;0.40;0.40;;;17.40;92.70;;;;;;4263584;33;20123;-75
2022/09/06 00:15:30;;;;;;;0.40;0.40;;;17.30;92.70;;;;;;4258287;33;20089;-74
2022/09/06 00:17:58;;;;;;;0.40;0.40;;;17.30;93.00;;;;;;4262305;33;20089;-74
2022/09/06 00:20:26;;;;;;;0.30;0.30;;;17.20;92.90;;;;;;4262056;33;20117;-75
2022/09/06 00:22:55;;;;;;;0.30;0.30;;;17.20;92.70;;;;;;4262837;33;20446;-75
2022/09/06 00:25:21;;;;;;;3.25;0.90;;;17.20;92.70;;;;;;4263566;33;20092;-75
2022/09/06 00:27:46;;;;;;;0.35;0.35;;;17.30;92.80;;;;;;4250729;33;20089;-75
2022/09/06 00:30:12;;;;;;;0.30;0.30;;;17.30;92.70;;;;;;4253513;33;20104;-74
2022/09/06 00:32:38;;;;;;;1.60;0.50;;;17.20;92.70;;;;;;4262586;33;20089;-74
2022/09/06 00:35:05;;;;;;;0.60;0.60;;;17.20;92.60;;;;;;4261382;33;20173;-74
2022/09/06 00:37:30;;;;;;;0.50;0.50;;;17.10;92.70;;;;;;4260845;33;20102;-74
2022/09/06 00:39:56;;;;;;;0.30;0.30;;;17.10;92.70;;;;;;4262559;33;20502;-74
2022/09/06 00:42:21;;;;;;;0.30;0.30;;;17.10;92.60;;;;;;4261855;33;20143;-74
2022/09/06 00:44:48;;;;;;;0.30;0.30;;;17.10;92.90;;;;;;4258914;33;20108;-74
2022/09/06 00:47:13;;;;;;;0.35;0.35;;;17.00;92.70;;;;;;4263439;33;20408;-74
2022/09/06 00:49:45;;;;;;;0.37;0.37;;;17.00;92.80;;;;;;4265939;33;20085;-74
2022/09/06 00:52:14;;;;;;;0.20;0.20;;;17.00;92.70;;;;;;4264329;33;20146;-74
2022/09/06 00:54:40;;;;;;;0.20;0.20;;;17.00;92.60;;;;;;4263840;33;20557;-74
2022/09/06 00:57:06;;;;;;;2.37;1.25;;;16.90;92.60;;;;;;4261439;33;20133;-74
2022/09/06 00:59:34;;;;;;;0.30;0.30;;;16.80;92.60;;;;;;4251423;33;20161;-74
2022/09/06 01:02:00;;;;;;;0.40;0.40;;;16.80;92.80;;;;;;4261485;33;20069;-74
2022/09/06 01:04:26;;;;;;;0.20;0.20;;;16.70;92.70;;;;;;4262909;33;20569;-74
2022/09/06 01:07:04;;;;;;;0.30;0.30;;;16.80;92.60;;;;;;4263112;33;20101;-74
2022/09/06 01:09:45;;;;;;;0.40;0.40;;;16.70;92.60;;;;;;4265524;33;20085;-74
2022/09/06 01:12:23;;;;;;;3.08;0.45;;;16.70;92.60;;;;;;4265368;33;20493;-74
2022/09/06 01:15:04;;;;;;;0.25;0.25;;;16.60;92.60;;;;;;4245039;33;20097;-74
2022/09/06 01:17:36;;;;;;;0.22;0.22;;;16.60;92.60;;;;;;4264818;33;20100;-74
2022/09/06 01:20:22;;;;;;;0.28;0.28;;;16.50;92.70;;;;;;4263443;33;20077;-74
2022/09/06 01:23:05;;;;;;;1.35;0.60;;;16.50;92.60;;;;;;4254299;33;20089;-74
2022/09/06 01:25:44;;;;;;;1.62;0.98;;;16.50;92.60;;;;;;4263857;33;20093;-74
2022/09/06 01:28:31;;;;;;;0.40;0.40;;;16.40;92.60;;;;;;4248678;33;20363;-74
2022/09/06 01:31:25;;;;;;;0.20;0.20;;;16.40;92.80;;;;;;4249069;33;21348;-74
2022/09/06 01:34:13;;;;;;;0.28;0.28;;;16.40;92.70;;;;;;4255468;33;20073;-74
2022/09/06 01:37:01;;;;;;;0.62;0.52;;;16.40;92.80;;;;;;4262903;33;20477;-74
2022/09/06 01:39:31;;;;;;;0.30;0.30;;;16.30;92.80;;;;;;4265086;33;20460;-74
2022/09/06 01:41:59;;;;;;;0.30;0.30;;;16.20;92.80;;;;;;4264765;33;20081;-74
2022/09/06 01:44:27;;;;;;;0.20;0.20;;;16.20;92.90;;;;;;4261046;33;20089;-74
2022/09/06 01:47:18;;;;;;;0.20;0.20;;;16.20;92.90;;;;;;4264688;33;20474;-75
2022/09/06 01:50:04;;;;;;;0.37;0.37;;;16.20;92.80;;;;;;4254982;33;20088;-74
2022/09/06 01:53:09;;;;;;;0.30;0.30;;;16.20;92.90;;;;;;4262875;33;20475;-74
2022/09/06 01:55:48;;;;;;;0.30;0.30;;;16.10;92.90;;;;;;4254147;33;20069;-74
2022/09/06 01:58:43;;;;;;;2.00;0.40;;;16.10;93.00;;;;;;4248877;33;20902;-74
2022/09/06 02:01:48;;;;;;;0.30;0.30;;;16.10;93.00;;;;;;4249884;33;20120;-74
2022/09/06 02:04:25;;;;;;;1.85;0.37;;;16.10;93.20;;;;;;4253226;33;20081;-74
2022/09/06 02:07:12;;;;;;;0.25;0.25;;;16.10;93.10;;;;;;4263144;33;20084;-74
2022/09/06 02:09:40;;;;;;;0.30;0.30;;;16.00;93.10;;;;;;4249676;33;20499;-74
2022/09/06 02:12:07;;;;;;;4.35;0.60;;;16.10;93.20;;;;;;4263158;33;20562;-74
2022/09/06 02:14:38;;;;;;;0.40;0.40;;;16.00;93.20;;;;;;4259791;33;20497;-74
2022/09/06 02:17:07;;;;;;;0.50;0.50;;;16.00;93.30;;;;;;4264884;33;20093;-75
2022/09/06 02:19:38;;;;;;;0.50;0.50;;;16.00;93.40;;;;;;4263058;33;20096;-74
2022/09/06 02:22:08;;;;;;;0.40;0.40;;;16.00;93.50;;;;;;4263942;33;20538;-73
2022/09/06 02:24:36;;;;;;;3.40;0.47;;;16.00;93.40;;;;;;4261775;33;20089;-73
2022/09/06 02:27:02;;;;;;;0.20;0.20;;;16.00;93.40;;;;;;4261587;33;20106;-73
2022/09/06 02:29:27;;;;;;;0.30;0.30;;;16.00;93.40;;;;;;4247370;33;20076;-73
2022/09/06 02:32:00;;;;;;;0.20;0.20;;;16.00;93.40;;;;;;4260716;33;20122;-73
2022/09/06 02:34:26;;;;;;;0.30;0.30;;;16.00;93.50;;;;;;4263212;33;20069;-73
2022/09/06 02:36:53;;;;;;;0.65;0.65;;;16.00;93.50;;;;;;4261613;33;20080;-73
2022/09/06 02:39:18;;;;;;;0.25;0.25;;;15.90;93.60;;;;;;4263298;33;20114;-72
2022/09/06 02:41:45;;;;;;;0.52;0.52;;;15.90;93.60;;;;;;4262136;33;20125;-72
2022/09/06 02:44:11;;;;;;;1.08;0.40;;;16.00;93.80;;;;;;4258570;33;20068;-73
2022/09/06 02:46:36;;;;;;;0.20;0.20;;;16.00;93.70;;;;;;4261506;33;20147;-72
2022/09/06 02:49:02;;;;;;;0.30;0.30;;;16.00;93.70;;;;;;4263716;33;20477;-73
2022/09/06 02:51:28;;;;;;;1.05;0.70;;;15.90;93.70;;;;;;4262680;33;20100;-73
2022/09/06 02:53:54;;;;;;;1.02;0.93;;;15.90;93.80;;;;;;4261552;33;20317;-72
2022/09/06 02:56:19;;;;;;;0.30;0.30;;;15.90;93.80;;;;;;4264869;33;20100;-72
2022/09/06 02:58:45;;;;;;;0.30;0.30;;;15.90;93.80;;;;;;4247792;33;20097;-72
2022/09/06 03:01:11;;;;;;;0.40;0.40;;;15.80;93.90;;;;;;4259394;33;20513;-73
2022/09/06 03:03:36;;;;;;;2.40;0.88;;;15.80;94.00;;;;;;4263136;33;20073;-73
2022/09/06 03:06:02;;;;;;;0.30;0.30;;;15.90;94.00;;;;;;4260966;33;20116;-73
2022/09/06 03:08:33;;;;;;;0.30;0.30;;;15.90;93.90;;;;;;4265404;33;20401;-73
2022/09/06 03:10:59;;;;;;;0.40;0.40;;;15.80;94.00;;;;;;4262104;33;20109;-73
2022/09/06 03:13:26;;;;;;;0.30;0.30;;;15.80;94.20;;;;;;4261143;33;20078;-73
2022/09/06 03:15:54;;;;;;;1.02;0.73;;;15.80;94.40;;;;;;4260491;33;20069;-73
2022/09/06 03:18:19;;;;;;;0.43;0.40;;;15.80;94.30;;;;;;4263695;33;20097;-72
2022/09/06 03:20:47;;;;;;;0.40;0.40;;;15.80;94.30;;;;;;4263449;33;20434;-73
2022/09/06 03:23:12;;;;;;;0.32;0.32;;;15.80;94.30;;;;;;4262870;33;20152;-73
2022/09/06 03:25:38;;;;;;;0.50;0.50;;;15.80;94.60;;;;;;4262694;33;20570;-73
2022/09/06 03:28:03;;;;;;;0.20;0.20;;;15.80;94.40;;;;;;4249753;33;20423;-73
2022/09/06 03:30:29;;;;;;;0.30;0.30;;;15.70;94.60;;;;;;4259199;33;20116;-72
2022/09/06 03:32:54;;;;;;;0.30;0.30;;;15.60;94.70;;;;;;4262372;33;20080;-73
2022/09/06 03:35:20;;;;;;;0.40;0.40;;;15.60;94.90;;;;;;4263469;33;20515;-73
2022/09/06 03:37:45;;;;;;;0.30;0.30;;;15.60;95.00;;;;;;4263119;33;20174;-73
2022/09/06 03:40:11;;;;;;;0.95;0.82;;;15.60;95.10;;;;;;4263247;33;20107;-73
2022/09/06 03:42:36;;;;;;;0.40;0.40;;;15.60;95.20;;;;;;4263955;33;20097;-72
2022/09/06 03:45:02;;;;;;;0.40;0.40;;;15.60;95.30;;;;;;4257448;33;20077;-73
2022/09/06 03:47:28;;;;;;;0.20;0.20;;;15.60;95.40;;;;;;4263520;33;20092;-73
2022/09/06 03:49:53;;;;;;;0.32;0.32;;;15.60;95.50;;;;;;4264184;33;20135;-73
2022/09/06 03:52:19;;;;;;;0.30;0.30;;;15.60;95.50;;;;;;4261970;33;20237;-73
2022/09/06 03:54:44;;;;;;;0.37;0.37;;;15.50;95.70;;;;;;4262560;33;20121;-73
2022/09/06 03:57:10;;;;;;;0.28;0.28;;;15.50;95.70;;;;;;4259349;33;20084;-73
2022/09/06 03:59:35;;;;;;;0.37;0.37;;;15.50;95.90;;;;;;4251076;33;20198;-73
2022/09/06 04:02:01;;;;;;;0.45;0.45;;;15.40;96.10;;;;;;4259966;33;20429;-73
2022/09/06 04:04:26;;;;;;;0.30;0.30;;;15.40;96.20;;;;;;4262232;33;20147;-72
2022/09/06 04:06:52;;;;;;;0.30;0.30;;;15.40;96.40;;;;;;4262630;33;20113;-72
2022/09/06 04:09:17;;;;;;;0.30;0.30;;;15.30;96.40;;;;;;4264408;33;20080;-72
2022/09/06 04:11:42;;;;;;;0.80;0.62;;;15.40;96.40;;;;;;4262125;33;20084;-73
2022/09/06 04:14:08;;;;;;;0.30;0.30;;;15.40;96.40;;;;;;4258513;33;20558;-73
2022/09/06 04:16:34;;;;;;;0.37;0.37;;;15.40;96.60;;;;;;4261393;33;20077;-72
2022/09/06 04:19:00;;;;;;;0.30;0.30;;;15.40;96.50;;;;;;4265148;33;20084;-73
2022/09/06 04:21:26;;;;;;;0.30;0.30;;;15.40;96.70;;;;;;4253520;33;20089;-73
2022/09/06 04:23:52;;;;;;;0.30;0.30;;;15.30;96.90;;;;;;4215779;33;20587;-73
2022/09/06 04:26:17;;;;;;;0.43;0.43;;;15.20;97.10;;;;;;4228140;33;20084;-72
2022/09/06 04:28:43;;;;;;;0.32;0.32;;;15.20;97.10;;;;;;4208360;33;20069;-72
2022/09/06 04:31:08;;;;;;;0.50;0.50;;;15.20;97.10;;;;;;4261175;33;20081;-72
2022/09/06 04:33:36;;;;;;;0.50;0.50;;;15.20;97.50;;;;;;4262797;33;20069;-73
2022/09/06 04:36:03;;;;;;;2.08;0.73;;;15.20;97.50;;;;;;4262670;33;20097;-72
2022/09/06 04:38:33;;;;;;;0.40;0.40;;;15.20;97.50;;;;;;4264732;33;20088;-72
2022/09/06 04:40:59;;;;;;;0.30;0.30;;;15.20;97.60;;;;;;4262414;33;20491;-72
2022/09/06 04:43:24;;;;;;;0.40;0.40;;;15.10;97.60;;;;;;4262534;33;20069;-73
2022/09/06 04:45:50;;;;;;;0.30;0.30;;;15.10;97.60;;;;;;4259643;33;20057;-72
2022/09/06 04:48:16;;;;;;;0.25;0.25;;;15.20;97.70;;;;;;4264061;33;20546;-73
2022/09/06 04:50:41;;;;;;;0.30;0.30;;;15.10;97.80;;;;;;4261812;33;20097;-73
2022/09/06 04:53:09;;;;;;;0.43;0.30;;;15.10;97.80;;;;;;4222657;33;20060;-73
2022/09/06 04:55:36;;;;;;;0.75;0.75;;;15.10;97.80;;;;;;4261612;33;20092;-72
2022/09/06 04:58:02;;;;;;;0.40;0.40;;;15.20;97.90;;;;;;4249802;33;20066;-72
2022/09/06 05:00:30;;;;;;;0.30;0.30;;;15.10;97.90;;;;;;4249681;33;20258;-73
2022/09/06 05:02:56;;;;;;;0.50;0.43;;;15.10;98.10;;;;;;4242545;33;20650;-73
2022/09/06 05:05:22;;;;;;;0.20;0.20;;;15.10;98.00;;;;;;4231590;33;20215;-74
2022/09/06 05:07:51;;;;;;;0.30;0.30;;;15.10;98.50;;;;;;4230196;33;20395;-73
2022/09/06 05:10:17;;;;;;;0.40;0.40;;;15.20;98.20;;;;;;4225473;33;20085;-73
2022/09/06 05:12:42;;;;;;;0.35;0.35;;;15.20;98.00;;;;;;4243045;33;20053;-73
2022/09/06 05:15:08;;;;;;;0.32;0.32;;;15.20;98.00;;;;;;4245114;33;20221;-73
2022/09/06 05:17:34;;;;;;;0.30;0.30;;;15.20;98.00;;;;;;4224316;33;20615;-73
2022/09/06 05:19:59;;;;;;;3.92;0.73;;;15.20;98.20;;;;;;4158428;33;21135;-73
2022/09/06 05:22:24;;;;;;;0.88;0.75;;;15.20;98.40;;;;;;4179310;33;21125;-73
2022/09/06 05:24:51;;;;;;;3.60;0.82;;;15.20;98.10;;;;;;4166724;33;20503;-72
2022/09/06 05:27:17;;;;;;;0.37;0.37;;;15.30;98.00;;;;;;4238290;33;20565;-74
2022/09/06 05:29:42;;;;;;;0.30;0.30;;;15.20;98.20;;;;;;4185676;33;20073;-73
2022/09/06 05:32:08;;;;;;;0.30;0.30;;;15.30;98.20;;;;;;4167849;33;20398;-73
2022/09/06 05:34:34;;;;;;;0.45;0.45;;;15.40;98.00;;;;;;4189848;33;20248;-73
2022/09/06 05:36:59;;;;;;;0.40;0.40;;;15.40;98.00;;;;;;4216998;33;20215;-74
2022/09/06 05:39:26;;;;;;;0.40;0.40;;;15.40;98.00;;;;;;4220391;33;20238;-75
2022/09/06 05:41:52;;;;;;;0.43;0.43;;;15.50;98.10;;;;;;4236952;33;20596;-74
2022/09/06 05:44:17;;;;;;;0.40;0.40;;;15.50;98.20;;;;;;4239151;33;20097;-75
2022/09/06 05:46:44;;;;;;;0.30;0.30;;;15.50;98.20;;;;;;4242504;33;20126;-74
2022/09/06 05:49:12;;;;;;;0.30;0.30;;;15.50;98.10;;;;;;4228412;33;20293;-73
2022/09/06 05:51:38;;;;;;;0.30;0.30;;;15.50;98.00;;;;;;4236688;33;20726;-74
2022/09/06 05:54:04;;;;;;;0.40;0.40;;;15.50;98.00;;;;;;4233284;33;20104;-75
2022/09/06 05:56:30;;;;;;;0.45;0.45;;;15.50;98.10;;;;;;4230783;33;20708;-76
2022/09/06 05:58:55;;;;;;;0.30;0.30;;;15.50;98.40;;;;;;4210271;33;20337;-74
2022/09/06 06:01:25;;;;;;;0.35;0.35;;;15.50;98.60;;;;;;4211075;33;21049;-73
2022/09/06 06:03:54;;;;;;;0.75;0.62;;;15.60;98.20;;;;;;4211082;33;20240;-74
2022/09/06 06:06:21;;;;;;;0.45;0.45;;;15.60;98.20;;;;;;4230819;33;20134;-74
2022/09/06 06:08:47;;;;;;;0.55;0.55;;;15.60;98.20;;;;;;4233472;33;20271;-75
2022/09/06 06:11:13;;;;;;;0.32;0.32;;;15.60;98.30;;;;;;4242068;33;20065;-73
2022/09/06 06:13:39;;;;;;;0.47;0.47;;;15.70;98.20;;;;;;4239672;33;20228;-74
2022/09/06 06:16:06;;;;;;;0.40;0.40;;;15.70;98.20;;;;;;4235434;33;20256;-74
2022/09/06 06:18:31;;;;;;;0.30;0.30;;;15.80;97.90;;;;;;4234991;33;21758;-74
2022/09/06 06:21:22;;;;;;;0.30;0.30;;;15.80;98.20;;;;;;4239875;33;20105;-75
2022/09/06 06:23:50;;;;;;;0.40;0.40;;;15.90;98.20;;;;;;4220456;33;20073;-76
2022/09/06 06:26:16;;;;;;;0.50;0.50;;;15.90;98.30;;;;;;4234726;33;20110;-74
2022/09/06 06:28:42;;;;;;;0.40;0.40;;;16.00;98.20;;;;;;4231939;33;20081;-74
2022/09/06 06:31:10;;;;;;;0.30;0.30;;;16.10;97.80;;;;;;4230968;33;20172;-73
2022/09/06 06:33:37;;;;;;;0.40;0.40;;;16.00;97.60;;;;;;4222885;33;20109;-75
2022/09/06 06:36:15;;;;;;;0.20;0.20;;;16.10;97.60;;;;;;4231457;33;20230;-74
2022/09/06 06:38:42;;;;;;;0.35;0.35;;;16.10;97.40;;;;;;4236654;33;20104;-74
2022/09/06 06:41:10;;;;;;;0.37;0.35;;;16.10;97.40;;;;;;4237521;33;20589;-74
2022/09/06 06:43:36;;;;;;;0.40;0.40;;;16.20;97.40;;;;;;4240472;33;20541;-74
2022/09/06 06:46:18;;;;;;;0.30;0.30;;;16.30;97.40;;;;;;4239501;33;20125;-74
2022/09/06 06:48:45;;;;;;;0.37;0.37;;;16.50;97.60;;;;;;4223890;33;27024;-74
2022/09/06 06:51:16;;;;;;;0.30;0.30;;;16.60;97.40;;;;;;4227822;33;21055;-74
2022/09/06 06:53:42;;;;;;;0.30;0.30;;;16.70;96.80;;;;;;4236446;33;20517;-74
2022/09/06 06:56:29;;;;;;;1.55;0.98;;;16.70;96.50;;;;;;4230587;33;20097;-76
2022/09/06 06:58:57;;;;;;;0.30;0.30;;;16.70;96.50;;;;;;4221969;33;20744;-75
2022/09/06 07:01:25;;;;;;;0.30;0.30;;;16.60;96.50;;;;;;4223903;33;21616;-74
2022/09/06 07:03:51;;;;;;;0.30;0.30;;;16.70;96.60;;;;;;4226085;33;20690;-74
2022/09/06 07:06:17;;;;;;;0.30;0.30;;;16.80;96.90;;;;;;4228910;33;20093;-75
2022/09/06 07:08:43;;;;;;;0.35;0.35;;;16.90;96.80;;;;;;4235223;33;20546;-75
2022/09/06 07:11:11;;;;;;;0.50;0.50;;;16.90;97.00;;;;;;4239658;33;20076;-74
2022/09/06 07:13:37;;;;;;;0.40;0.40;;;17.00;96.40;;;;;;4238109;33;20142;-75
2022/09/06 07:16:14;;;;;;;0.60;0.60;;;17.00;96.60;;;;;;4236603;33;20517;-74
2022/09/06 07:18:41;;;;;;;0.45;0.45;;;17.10;96.70;;;;;;4231399;33;20645;-74
2022/09/06 07:21:10;;;;;;;0.30;0.30;;;17.10;96.50;;;;;;4236284;33;20129;-74
2022/09/06 07:23:35;;;;;;;0.20;0.20;;;17.10;96.90;;;;;;4228343;33;20164;-73
2022/09/06 07:26:01;;;;;;;0.43;0.43;;;17.10;96.70;;;;;;4228154;33;20077;-76
2022/09/06 07:28:26;;;;;;;0.40;0.40;;;17.10;96.50;;;;;;4229721;33;20243;-75
2022/09/06 07:30:53;;;;;;;0.20;0.20;;;17.20;96.60;;;;;;4213382;33;20870;-76
2022/09/06 07:33:19;;;;;;;0.50;0.50;;;17.30;96.80;;;;;;4208757;33;20575;-76
2022/09/06 07:35:55;;;;;;;0.30;0.30;;;17.40;96.40;;;;;;4226095;33;20453;-76
2022/09/06 07:38:21;;;;;;;0.40;0.40;;;17.50;96.30;;;;;;4238037;33;20451;-74
2022/09/06 07:40:54;;;;;;;1.52;0.50;;;17.40;96.60;;;;;;4240760;33;20130;-74
2022/09/06 07:43:19;;;;;;;0.32;0.32;;;17.40;96.50;;;;;;4240579;33;20162;-73
2022/09/06 07:45:47;;;;;;;0.30;0.30;;;17.40;96.70;;;;;;4242664;33;20077;-75
2022/09/06 07:48:12;;;;;;;0.40;0.40;;;17.50;96.60;;;;;;4221426;33;20216;-73
2022/09/06 07:50:38;;;;;;;0.40;0.40;;;17.50;96.90;;;;;;4210754;33;20121;-73
2022/09/06 07:53:08;;;;;;;0.37;0.37;;;17.60;96.50;;;;;;4213351;33;20425;-73
2022/09/06 07:55:33;;;;;;;0.32;0.32;;;17.60;96.70;;;;;;4221541;33;20412;-72
2022/09/06 07:57:59;;;;;;;4.80;0.40;;;17.50;96.60;;;;;;4217229;33;21000;-72
2022/09/06 08:00:24;;;;;;;0.30;0.30;;;17.70;97.20;;;;;;4217378;33;20427;-75
2022/09/06 08:02:50;;;;;;;0.30;0.30;;;17.70;96.50;;;;;;4213278;33;20157;-73
2022/09/06 08:05:15;;;;;;;2.60;0.95;;;17.80;96.70;;;;;;4227111;33;20479;-73
2022/09/06 08:07:40;;;;;;;0.40;0.40;;;17.90;96.50;;;;;;4230654;33;20470;-73
2022/09/06 08:10:07;;;;;;;0.68;0.68;;;17.90;96.50;;;;;;4240870;33;20682;-74
2022/09/06 08:12:32;;;;;;;0.30;0.30;;;17.90;96.30;;;;;;4235272;33;20117;-74
2022/09/06 08:14:58;;;;;;;1.37;1.15;;;18.00;96.60;;;;;;4238068;33;20415;-74
2022/09/06 08:17:23;;;;;;;0.35;0.35;;;18.10;96.60;;;;;;4228440;33;20566;-74
2022/09/06 08:19:48;;;;;;;0.75;0.75;;;18.20;96.50;;;;;;4227704;33;20656;-72
2022/09/06 08:22:14;;;;;;;0.98;0.75;;;18.30;96.40;;;;;;4237541;33;20242;-73
2022/09/06 08:24:40;;;;;;;0.37;0.37;;;18.30;96.20;;;;;;4229329;33;20188;-73
2022/09/06 08:27:06;;;;;;;0.40;0.40;;;18.20;96.80;;;;;;4221392;33;20302;-73
2022/09/06 08:29:32;;;;;;;0.47;0.47;;;18.30;96.30;;;;;;4226664;33;20104;-74
2022/09/06 08:31:58;;;;;;;11.70;1.35;;;18.40;96.50;;;;;;4212371;33;91250;-73
2022/09/06 08:34:24;;;;;;;1.00;0.90;;;18.60;96.10;;;;;;4216852;33;20125;-72
2022/09/06 08:36:49;;;;;;;0.30;0.30;;;18.60;96.30;;;;;;4226833;33;20155;-72
2022/09/06 08:39:15;;;;;;;1.92;0.60;;;18.60;96.60;;;;;;4233347;33;20150;-73
2022/09/06 08:41:48;;;;;;;1.65;0.77;;;18.70;96.60;;;;;;4230176;33;20100;-74
2022/09/06 08:44:20;;;;;;;0.32;0.32;;;18.60;96.10;;;;;;4234546;33;20829;-73
2022/09/06 08:46:53;;;;;;;0.28;0.28;;;18.60;96.50;;;;;;4236056;33;20347;-73
2022/09/06 08:49:18;;;;;;;0.50;0.50;;;18.60;96.30;;;;;;4231409;33;20096;-73
2022/09/06 08:51:59;;;;;;;0.40;0.40;;;18.70;96.50;;;;;;4230257;33;20205;-73
2022/09/06 08:54:45;;;;;;;0.32;0.32;;;18.90;96.40;;;;;;4231910;33;20113;-73
2022/09/06 08:57:32;;;;;;;0.20;0.20;;;19.00;96.30;;;;;;4227612;33;20069;-72
2022/09/06 09:00:03;;;;;;;0.30;0.30;;;19.10;96.30;;;;;;4234028;33;20964;-73
2022/09/06 09:02:43;;;;;;;0.40;0.40;;;19.20;96.30;;;;;;4226458;33;20612;-72
2022/09/06 09:05:19;;;;;;;1.42;0.62;;;19.30;96.20;;;;;;4240812;33;20096;-73
2022/09/06 09:07:55;;;;;;;0.85;0.65;;;19.40;96.60;;;;;;4241664;33;20100;-72
2022/09/06 09:10:27;;;;;;;0.30;0.30;;;19.50;95.80;;;;;;4243090;33;20903;-70
2022/09/06 09:12:53;;;;;;;0.60;0.60;;;19.60;96.10;;;;;;4237272;33;20120;-72
2022/09/06 09:15:20;;;;;;;0.65;0.57;;;19.50;95.60;;;;;;4236566;33;20142;-71
2022/09/06 09:17:49;;;;;;;0.30;0.30;;;19.50;96.00;;;;;;4239253;33;20097;-71
2022/09/06 09:20:15;;;;;;;0.30;0.30;;;19.60;95.70;;;;;;4234971;33;20077;-71
2022/09/06 09:22:42;;;;;;;0.30;0.30;;;19.60;95.50;;;;;;4210692;33;20645;-70
2022/09/06 09:25:16;;;;;;;5.93;1.20;;;19.70;95.70;;;;;;4193211;33;20100;-71
2022/09/06 09:27:43;;;;;;;1.58;1.12;;;19.80;95.70;;;;;;4190197;33;20343;-72
2022/09/06 09:30:10;;;;;;;0.20;0.20;;;20.00;95.40;;;;;;4200617;33;20093;-72
2022/09/06 09:32:39;;;;;;;0.28;0.28;;;20.00;95.10;;;;;;4215569;33;22552;-72
2022/09/06 09:35:31;;;;;;;3.60;0.60;;;20.00;95.40;;;;;;4218367;33;20321;-73
2022/09/06 09:38:01;;;;;;;0.95;0.50;;;20.20;95.50;;;;;;4230365;33;20209;-70
2022/09/06 09:40:32;;;;;;;1.02;0.57;;;20.20;95.30;;;;;;4227530;33;20208;-71
2022/09/06 09:43:11;;;;;;;0.47;0.43;;;20.30;95.30;;;;;;4227269;33;20265;-72
2022/09/06 09:45:37;;;;;;;0.50;0.50;;;20.30;95.70;;;;;;4235868;33;20105;-72
2022/09/06 09:48:25;;;;;;;1.08;0.77;;;20.20;95.50;;;;;;4236351;33;20495;-72
2022/09/06 09:50:51;;;;;;;0.40;0.40;;;20.10;95.30;;;;;;4215127;33;20967;-72
2022/09/06 09:53:20;;;;;;;0.82;0.57;;;20.10;95.50;;;;;;4225854;33;20528;-72
2022/09/06 09:55:47;;;;;;;0.35;0.35;;;20.20;95.40;;;;;;4235477;33;20100;-72
2022/09/06 09:58:30;;;;;;;0.40;0.40;;;20.20;95.30;;;;;;4232768;33;20101;-72
2022/09/06 10:01:21;;;;;;;0.30;0.30;;;20.10;95.50;;;;;;4236981;33;20084;-71
2022/09/06 10:03:47;;;;;;;1.42;0.55;;;20.10;95.70;;;;;;4219256;33;20096;-72
2022/09/06 10:06:14;;;;;;;0.37;0.37;;;20.30;95.80;;;;;;4239842;33;20717;-72
2022/09/06 10:08:42;;;;;;;1.58;0.57;;;20.30;95.80;;;;;;4230391;33;20149;-73
2022/09/06 10:11:12;;;;;;;0.25;0.25;;;20.30;96.50;;;;;;4218764;33;20101;-72
2022/09/06 10:13:39;;;;;;;0.67;0.67;;;20.40;96.60;;;;;;4224497;33;20107;-73
2022/09/06 10:16:06;;;;;;;0.20;0.20;;;20.40;95.90;;;;;;4215328;33;21536;-72
2022/09/06 10:18:45;;;;;;;0.25;0.25;;;20.40;95.90;;;;;;4210476;33;20104;-73
2022/09/06 10:21:17;;;;;;;0.57;0.57;;;20.40;96.00;;;;;;4223726;33;20446;-73
2022/09/06 10:24:08;;;;;;;1.05;0.95;;;20.50;95.90;;;;;;4220563;33;20129;-72
2022/09/06 10:26:54;;;;;;;0.30;0.30;;;20.50;95.90;;;;;;4227225;33;20226;-73
2022/09/06 10:29:51;;;;;;;0.35;0.35;;;20.40;95.30;;;;;;4238669;33;20300;-72
2022/09/06 10:32:37;;;;;;;1.00;0.60;;;20.40;95.70;;;;;;4238570;33;20065;-73
2022/09/06 10:35:10;;;;;;;0.40;0.40;;;20.40;95.60;;;;;;4235914;33;20121;-73
2022/09/06 10:38:00;;;;;;;0.40;0.40;;;20.50;95.30;;;;;;4241018;33;20149;-73
2022/09/06 10:40:49;;;;;;;0.43;0.43;;;20.50;95.40;;;;;;4243418;33;20093;-72
2022/09/06 10:43:18;;;;;;;0.28;0.28;;;20.60;95.40;;;;;;4227245;33;20084;-72
2022/09/06 10:46:10;;;;;;;0.50;0.50;;;20.70;95.20;;;;;;4233550;33;20514;-72
2022/09/06 10:48:40;;;;;;;0.70;0.43;;;20.90;95.20;;;;;;4210305;33;20120;-73
2022/09/06 10:51:30;;;;;;;7.35;0.85;;;21.10;95.80;;;;;;4224462;33;21378;-73
2022/09/06 10:54:07;;;;;;;0.95;0.90;;;21.30;94.90;;;;;;4199760;33;20304;-72
2022/09/06 10:56:42;;;;;;;0.40;0.40;;;21.50;94.50;;;;;;4207309;33;20108;-72
2022/09/06 10:59:30;;;;;;;0.28;0.28;;;21.50;94.20;;;;;;4204219;33;20105;-72
2022/09/06 11:02:09;;;;;;;0.43;0.40;;;21.50;93.90;;;;;;4223017;33;20093;-73
2022/09/06 11:04:37;;;;;;;0.30;0.30;;;21.70;94.20;;;;;;4210816;33;20187;-73
2022/09/06 11:07:16;;;;;;;0.50;0.50;;;22.00;93.80;;;;;;4217495;33;20245;-72
2022/09/06 11:09:50;;;;;;;1.00;0.77;;;22.30;93.30;;;;;;4217626;33;20112;-72
2022/09/06 11:12:27;;;;;;;0.22;0.22;;;22.50;92.80;;;;;;4222316;33;20978;-72
2022/09/06 11:14:52;;;;;;;0.68;0.60;;;22.60;92.70;;;;;;4230775;33;20333;-72
2022/09/06 11:17:32;;;;;;;0.37;0.37;;;22.40;92.70;;;;;;4227448;33;20324;-73
2022/09/06 11:20:06;;;;;;;0.68;0.68;;;22.20;92.60;;;;;;4222155;33;20983;-73
2022/09/06 11:23:05;;;;;;;0.40;0.40;;;22.00;93.20;;;;;;4210592;33;20118;-73
2022/09/06 11:26:00;;;;;;;0.40;0.40;;;22.00;93.70;;;;;;4200881;33;20089;-72
2022/09/06 11:28:34;;;;;;;0.40;0.40;;;21.90;93.70;;;;;;4225319;33;20117;-72
2022/09/06 11:31:01;;;;;;;1.65;1.08;;;21.90;93.70;;;;;;4231847;33;20146;-72
2022/09/06 11:33:30;;;;;;;0.28;0.28;;;21.90;93.60;;;;;;4219609;33;20882;-73
2022/09/06 11:36:17;;;;;;;0.35;0.35;;;21.80;93.40;;;;;;4223563;33;20096;-72
2022/09/06 11:38:54;;;;;;;0.68;0.60;;;21.70;93.90;;;;;;4216581;33;20585;-72
2022/09/06 11:41:20;;;;;;;0.47;0.30;;;21.70;94.20;;;;;;4222111;33;20101;-72
2022/09/06 11:43:49;;;;;;;0.60;0.60;;;21.70;93.70;;;;;;4229876;33;20723;-73
2022/09/06 11:46:36;;;;;;;0.30;0.30;;;21.60;93.80;;;;;;4226971;33;20215;-74
2022/09/06 11:49:09;;;;;;;2.20;1.15;;;21.50;94.20;;;;;;4217820;33;20227;-72
2022/09/06 11:51:39;;;;;;;0.30;0.30;;;21.60;93.90;;;;;;4226461;33;20522;-72
2022/09/06 11:54:24;;;;;;;0.40;0.40;;;21.60;94.00;;;;;;4220981;33;20190;-74
2022/09/06 11:56:57;;;;;;;0.40;0.40;;;21.70;94.00;;;;;;4231185;33;20664;-73
2022/09/06 11:59:34;;;;;;;0.30;0.30;;;21.70;94.00;;;;;;4225174;33;20117;-74
2022/09/06 12:02:02;;;;;;;1.80;0.52;;;21.80;94.20;;;;;;4221747;33;20288;-74
2022/09/06 12:05:06;;;;;;;1.23;0.70;;;21.90;93.80;;;;;;4225844;33;20090;-72
2022/09/06 12:07:33;;;;;;;0.40;0.40;;;21.90;93.50;;;;;;4234236;33;20101;-72
2022/09/06 12:10:01;;;;;;;0.37;0.37;;;22.00;94.10;;;;;;4240827;33;20568;-73
2022/09/06 12:12:49;;;;;;;0.60;0.60;;;22.00;93.80;;;;;;4236287;33;20115;-73
2022/09/06 12:15:43;;;;;;;0.45;0.45;;;22.00;93.80;;;;;;4230811;33;20508;-73
2022/09/06 12:18:08;;;;;;;0.30;0.30;;;22.00;93.80;;;;;;4227545;33;20565;-73
2022/09/06 12:20:55;;;;;;;0.80;0.60;;;22.00;93.90;;;;;;4235027;33;20092;-73
2022/09/06 12:23:40;;;;;;;3.90;1.08;;;22.00;93.80;;;;;;4208220;33;20622;-73
2022/09/06 12:26:07;;;;;;;0.57;0.40;;;22.10;93.80;;;;;;4233109;33;20109;-73
2022/09/06 12:28:39;;;;;;;0.40;0.40;;;22.20;93.60;;;;;;4222671;33;20593;-73
2022/09/06 12:31:28;;;;;;;0.40;0.40;;;22.30;93.20;;;;;;4227312;33;20609;-73
2022/09/06 12:33:55;;;;;;;0.50;0.50;;;22.40;93.50;;;;;;4205238;33;20242;-73
2022/09/06 12:36:30;;;;;;;1.48;1.20;;;22.60;93.20;;;;;;4241979;33;21683;-74
2022/09/06 12:38:59;;;;;;;0.50;0.50;;;22.90;93.10;;;;;;4237888;33;20479;-74
2022/09/06 12:41:28;;;;;;;18.58;1.80;;;23.30;92.80;;;;;;4250728;33;20076;-75
2022/09/06 12:43:55;;;;;;;0.43;0.43;;;23.50;92.10;;;;;;4247478;33;20104;-75
2022/09/06 12:46:23;;;;;;;0.40;0.40;;;23.90;91.70;;;;;;4244487;33;20590;-73
2022/09/06 12:49:10;;;;;;;5.93;0.70;;;24.10;91.50;;;;;;4234158;33;20356;-74
2022/09/06 12:51:37;;;;;;;1.15;0.50;;;24.60;90.70;;;;;;4227190;33;20140;-73
2022/09/06 12:54:14;;;;;;;0.47;0.47;;;25.10;90.10;;;;;;4232288;33;20096;-76
2022/09/06 12:56:39;;;;;;;0.32;0.32;;;25.40;88.90;;;;;;4244494;33;20126;-74
2022/09/06 12:59:23;;;;;;;0.28;0.28;;;26.00;88.10;;;;;;4237097;33;20188;-75
2022/09/06 13:02:01;;;;;;;1.40;0.43;;;25.90;87.30;;;;;;4243474;33;20093;-73
2022/09/06 13:04:29;;;;;;;0.30;0.30;;;25.30;88.50;;;;;;4241151;33;20356;-75
2022/09/06 13:06:56;;;;;;;0.30;0.30;;;24.70;90.00;;;;;;4257563;33;20837;-75